createdAt,value
2023-02-16T00:02:53.188Z,18.20
2023-02-16T00:06:56.170Z,18.35
2023-02-16T00:11:16.598Z,20.17
2023-02-16T00:15:20.228Z,18.27
2023-02-16T00:19:33.653Z,17.90
2023-02-16T00:23:35.394Z,16.85
2023-02-16T00:27:37.758Z,18.58
2023-02-16T00:31:39.692Z,17.90
2023-02-16T00:35:41.980Z,18.42
2023-02-16T00:39:45.097Z,16.90
2023-02-16T00:43:46.742Z,18.77
2023-02-16T00:47:51.409Z,18.45
2023-02-16T00:51:53.227Z,17.75
2023-02-16T00:55:55.060Z,17.83
2023-02-16T01:00:15.020Z,18.80
2023-02-16T01:04:23.458Z,18.87
2023-02-16T01:08:44.859Z,18.20
2023-02-16T01:12:46.596Z,18.37
2023-02-16T01:16:48.285Z,19.27
2023-02-16T01:20:49.913Z,17.90
2023-02-16T01:24:51.562Z,18.87
2023-02-16T01:28:53.301Z,19.40
2023-02-16T01:32:55.206Z,18.08
2023-02-16T01:36:56.836Z,18.58
2023-02-16T01:41:07.865Z,19.95
2023-02-16T01:45:13.749Z,18.05
2023-02-16T01:49:17.618Z,19.30
2023-02-16T01:53:26.740Z,18.48
2023-02-16T01:58:04.096Z,19.58
2023-02-16T02:02:20.306Z,18.30
2023-02-16T02:06:28.195Z,19.05
2023-02-16T02:10:44.894Z,18.92
2023-02-16T02:14:48.005Z,18.77
2023-02-16T02:18:49.912Z,19.15
2023-02-16T02:23:31.129Z,19.23
2023-02-16T02:27:53.380Z,18.50
2023-02-16T02:32:10.258Z,19.95
2023-02-16T02:36:28.818Z,19.35
2023-02-16T02:40:51.162Z,17.58
2023-02-16T02:44:57.115Z,18.52
2023-02-16T02:48:59.256Z,18.90
2023-02-16T02:53:04.802Z,18.77
2023-02-16T02:57:39.531Z,19.58
2023-02-16T03:01:43.898Z,17.48
2023-02-16T03:05:53.062Z,18.08
2023-02-16T03:10:14.688Z,18.27
2023-02-16T03:14:24.708Z,19.52
2023-02-16T03:18:47.010Z,18.87
2023-02-16T03:23:08.434Z,19.27
2023-02-16T03:27:30.884Z,18.42
2023-02-16T03:31:35.402Z,18.80
2023-02-16T03:35:37.542Z,19.50
2023-02-16T03:39:58.031Z,19.65
2023-02-16T03:43:59.893Z,18.10
2023-02-16T03:48:01.974Z,19.00
2023-02-16T03:52:03.784Z,19.25
2023-02-16T03:56:05.762Z,19.27
2023-02-16T04:00:08.013Z,19.17
2023-02-16T04:04:09.736Z,19.83
2023-02-16T04:08:11.972Z,19.58
2023-02-16T04:12:32.535Z,19.08
2023-02-16T04:16:34.250Z,18.87
2023-02-16T04:20:35.978Z,19.50
2023-02-16T04:24:37.616Z,18.70
2023-02-16T04:28:39.286Z,19.33
2023-02-16T04:32:41.276Z,19.52
2023-02-16T04:36:42.902Z,19.48
2023-02-16T04:40:44.540Z,19.92
2023-02-16T04:44:46.211Z,18.75
2023-02-16T04:48:47.943Z,21.87
2023-02-16T04:52:50.380Z,20.00
2023-02-16T04:56:52.007Z,20.20
2023-02-16T05:00:53.718Z,19.73
2023-02-16T05:04:55.393Z,19.48
2023-02-16T05:08:57.031Z,20.73
2023-02-16T05:13:17.232Z,20.10
2023-02-16T05:17:24.673Z,19.25
2023-02-16T05:21:32.288Z,20.42
2023-02-16T05:25:33.934Z,20.10
2023-02-16T05:29:35.593Z,19.90
2023-02-16T05:33:37.250Z,19.55
2023-02-16T05:37:40.536Z,20.42
2023-02-16T05:41:44.089Z,19.80
2023-02-16T05:45:45.756Z,20.05
2023-02-16T05:49:47.432Z,19.42
2023-02-16T05:53:49.183Z,20.10
2023-02-16T05:57:50.852Z,18.40
2023-02-16T06:01:52.755Z,20.95
2023-02-16T06:05:56.271Z,19.77
2023-02-16T06:09:57.909Z,19.70
2023-02-16T06:13:59.638Z,19.77
2023-02-16T06:18:03.130Z,18.42
2023-02-16T06:22:04.787Z,20.27
2023-02-16T06:26:06.398Z,18.90
2023-02-16T06:30:08.615Z,19.12
2023-02-16T06:34:10.335Z,18.42
2023-02-16T06:38:12.032Z,19.92
2023-02-16T06:42:13.656Z,20.08
2023-02-16T06:46:15.389Z,19.55
2023-02-16T06:50:17.635Z,18.02
2023-02-16T06:54:19.540Z,19.15
2023-02-16T06:58:21.241Z,18.02
2023-02-16T07:02:22.901Z,18.20
2023-02-16T07:06:27.146Z,18.52
2023-02-16T07:10:43.613Z,19.20
2023-02-16T07:14:49.303Z,18.70
2023-02-16T07:18:51.361Z,18.70
2023-02-16T07:22:53.012Z,19.30
2023-02-16T07:26:55.423Z,18.45
2023-02-16T07:30:57.135Z,19.12
2023-02-16T07:34:58.978Z,19.05
2023-02-16T07:39:00.701Z,19.35
2023-02-16T07:43:04.261Z,18.87
2023-02-16T07:47:06.030Z,19.55
2023-02-16T07:51:08.252Z,20.15
2023-02-16T07:55:11.204Z,17.45
2023-02-16T07:59:16.188Z,18.62
2023-02-16T08:03:17.935Z,19.52
2023-02-16T08:07:20.941Z,18.60
2023-02-16T08:11:25.050Z,18.75
2023-02-16T08:15:27.065Z,18.92
2023-02-16T08:19:31.397Z,18.40
2023-02-16T08:23:33.039Z,19.42
2023-02-16T08:27:35.676Z,18.50
2023-02-16T08:31:38.761Z,18.40
2023-02-16T08:35:40.581Z,19.15
2023-02-16T08:39:42.320Z,18.45
2023-02-16T08:43:44.367Z,19.85
2023-02-16T08:47:45.996Z,18.85
2023-02-16T08:51:50.699Z,19.50
2023-02-16T08:55:54.701Z,17.77
2023-02-16T09:00:14.918Z,17.75
2023-02-16T09:04:18.963Z,18.00
2023-02-16T09:08:21.560Z,18.50
2023-02-16T09:12:23.268Z,18.33
2023-02-16T09:16:33.610Z,19.23
2023-02-16T09:20:44.899Z,17.12
2023-02-16T09:24:48.350Z,17.90
2023-02-16T09:28:51.089Z,18.60
2023-02-16T09:32:52.766Z,18.52
2023-02-16T09:36:54.425Z,19.15
2023-02-16T09:40:56.934Z,19.02
2023-02-16T09:45:14.183Z,18.23
2023-02-16T09:49:36.944Z,18.85
2023-02-16T09:53:41.553Z,19.23
2023-02-16T09:58:08.199Z,18.77
2023-02-16T10:03:04.314Z,18.87
2023-02-16T10:07:32.158Z,18.95
2023-02-16T10:12:04.201Z,18.58
2023-02-16T10:16:13.004Z,18.45
2023-02-16T10:20:25.492Z,18.98
2023-02-16T10:24:31.130Z,18.42
2023-02-16T10:28:47.786Z,18.37
2023-02-16T10:32:57.014Z,19.03
2023-02-16T10:37:14.602Z,18.52
2023-02-16T10:45:37.224Z,17.77
2023-02-16T10:49:38.911Z,18.58
2023-02-16T10:54:00.784Z,18.70
2023-02-16T10:58:02.998Z,18.67
2023-02-16T11:02:37.930Z,19.20
2023-02-16T11:06:39.555Z,17.98
2023-02-16T11:10:50.437Z,18.73
2023-02-16T11:14:55.540Z,19.08
2023-02-16T11:19:00.490Z,19.08
2023-02-16T11:23:23.133Z,18.67
2023-02-16T11:27:25.880Z,19.10
2023-02-16T11:31:36.522Z,19.12
2023-02-16T11:35:43.456Z,19.23
2023-02-16T11:39:54.594Z,20.12
2023-02-16T11:43:57.783Z,19.15
2023-02-16T11:48:08.547Z,18.60
2023-02-16T11:52:24.714Z,20.42
2023-02-16T11:56:29.493Z,19.60
2023-02-16T12:00:31.614Z,20.55
2023-02-16T12:05:08.961Z,20.20
2023-02-16T12:09:31.500Z,20.83
2023-02-16T12:13:56.797Z,20.33
2023-02-16T12:18:26.101Z,19.37
2023-02-16T12:22:46.760Z,21.87
2023-02-16T12:26:58.296Z,21.95
2023-02-16T12:31:33.815Z,20.65
2023-02-16T12:35:59.820Z,20.77
2023-02-16T12:40:22.886Z,20.90
2023-02-16T12:44:36.289Z,20.75
2023-02-16T12:48:42.473Z,19.95
2023-02-16T12:53:08.847Z,20.48
2023-02-16T12:57:17.421Z,21.95
2023-02-16T13:01:25.355Z,19.42
2023-02-16T13:05:34.687Z,20.15
2023-02-16T13:09:40.618Z,21.65
2023-02-16T13:13:44.654Z,21.80
2023-02-16T13:17:52.873Z,21.30
2023-02-16T13:22:13.355Z,21.33
2023-02-16T13:26:46.107Z,21.15
2023-02-16T13:31:16.703Z,21.15
2023-02-16T13:35:18.362Z,21.70
2023-02-16T13:39:34.235Z,20.58
2023-02-16T13:43:43.279Z,20.65
2023-02-16T13:47:45.471Z,21.85
2023-02-16T13:51:47.365Z,19.75
2023-02-16T13:55:52.523Z,20.83
2023-02-16T14:00:05.781Z,21.08
2023-02-16T14:04:13.471Z,21.27
2023-02-16T14:08:21.743Z,21.80
2023-02-16T14:12:35.966Z,21.83
2023-02-16T14:16:37.731Z,20.77
2023-02-16T14:20:39.368Z,21.83
2023-02-16T14:24:43.246Z,21.27
2023-02-16T14:29:17.431Z,21.42
2023-02-16T14:33:39.385Z,20.75
2023-02-16T14:38:03.302Z,22.25
2023-02-16T14:42:14.067Z,20.62
2023-02-16T14:46:46.995Z,20.52
2023-02-16T14:51:36.311Z,20.92
2023-02-16T14:55:43.803Z,21.10
2023-02-16T14:59:57.027Z,20.80
2023-02-16T15:03:58.913Z,19.98
2023-02-16T15:08:17.675Z,20.45
2023-02-16T15:12:22.610Z,19.85
2023-02-16T15:16:24.605Z,19.52
2023-02-16T15:20:29.242Z,19.95
2023-02-16T15:24:31.131Z,20.15
2023-02-16T15:28:36.217Z,19.27
2023-02-16T15:32:38.197Z,20.05
2023-02-16T15:36:43.657Z,20.92
2023-02-16T15:40:45.418Z,19.87
2023-02-16T15:44:47.947Z,20.75
2023-02-16T15:48:52.400Z,19.70
2023-02-16T15:52:54.141Z,17.15
2023-02-16T15:56:58.408Z,18.80
2023-02-16T16:01:00.584Z,18.70
2023-02-16T16:05:05.269Z,17.80
2023-02-16T16:09:13.638Z,18.67
2023-02-16T16:13:20.875Z,18.27
2023-02-16T16:21:34.064Z,19.07
2023-02-16T16:25:35.708Z,18.02
2023-02-16T16:29:47.334Z,17.98
2023-02-16T16:33:53.512Z,17.80
2023-02-16T16:37:55.168Z,17.73
2023-02-16T16:41:56.767Z,17.55
2023-02-16T16:46:18.869Z,17.00
2023-02-16T16:50:20.423Z,16.50
2023-02-16T16:54:22.053Z,17.23
2023-02-16T16:58:23.691Z,16.27
2023-02-16T17:02:25.330Z,16.10
2023-02-16T17:06:27.441Z,15.20
2023-02-16T17:10:29.589Z,15.27
2023-02-16T17:14:31.312Z,14.02
2023-02-16T17:18:33.069Z,14.87
2023-02-16T17:22:34.760Z,15.27
2023-02-16T17:26:37.552Z,14.90
2023-02-16T17:30:39.843Z,15.98
2023-02-16T17:34:41.500Z,14.75
2023-02-16T17:38:43.687Z,15.38
2023-02-16T17:42:48.998Z,16.00
2023-02-16T17:46:50.683Z,15.40
2023-02-16T17:50:52.359Z,14.95
2023-02-16T17:54:54.005Z,15.18
2023-02-16T17:58:55.653Z,16.17
2023-02-16T18:02:57.281Z,14.93
2023-02-16T18:06:58.928Z,14.45
2023-02-16T18:11:03.270Z,16.33
2023-02-16T18:15:05.072Z,15.38
2023-02-16T18:19:08.675Z,10.73
2023-02-16T18:23:10.412Z,8.43
2023-02-16T18:27:12.196Z,8.20
2023-02-16T18:31:14.745Z,6.82
2023-02-16T18:35:17.511Z,6.87
2023-02-16T18:39:19.184Z,6.80
2023-02-16T18:43:21.626Z,6.25
2023-02-16T18:47:23.476Z,6.40
2023-02-16T18:51:28.786Z,6.70
2023-02-16T18:55:33.012Z,7.12
2023-02-16T18:59:35.325Z,8.15
2023-02-16T19:03:37.048Z,7.72
2023-02-16T19:07:38.855Z,8.20
2023-02-16T19:11:40.517Z,9.05
2023-02-16T19:15:42.197Z,8.93
2023-02-16T19:19:43.951Z,8.82
2023-02-16T19:23:45.917Z,8.20
2023-02-16T19:27:47.921Z,9.02
2023-02-16T19:31:49.669Z,9.82
2023-02-16T19:35:58.864Z,10.10
2023-02-16T19:40:00.480Z,9.50
2023-02-16T19:44:02.560Z,9.05
2023-02-16T19:48:04.442Z,9.38
2023-02-16T19:52:06.185Z,8.68
2023-02-16T19:56:11.826Z,8.82
2023-02-16T20:00:14.034Z,8.43
2023-02-16T20:04:15.679Z,9.38
2023-02-16T20:08:17.336Z,9.52
2023-02-16T20:12:19.538Z,10.00
2023-02-16T20:16:21.585Z,10.80
2023-02-16T20:20:23.394Z,10.40
2023-02-16T20:24:25.093Z,10.57
2023-02-16T20:28:26.931Z,10.80
2023-02-16T20:32:29.966Z,10.98
2023-02-16T20:36:32.248Z,11.25
2023-02-16T20:40:34.014Z,10.88
2023-02-16T20:44:35.678Z,12.15
2023-02-16T20:48:37.367Z,11.90
2023-02-16T20:52:39.814Z,12.45
2023-02-16T20:56:41.528Z,12.60
2023-02-16T21:00:44.466Z,12.32
2023-02-16T21:04:46.220Z,11.82
2023-02-16T21:08:48.269Z,12.63
2023-02-16T21:12:49.932Z,11.73
2023-02-16T21:16:51.743Z,12.18
2023-02-16T21:20:53.457Z,13.68
2023-02-16T21:24:55.109Z,12.57
2023-02-16T21:28:56.832Z,12.95
2023-02-16T21:32:58.491Z,13.88
2023-02-16T21:37:00.416Z,13.48
2023-02-16T21:41:25.955Z,13.38
2023-02-16T21:45:27.684Z,12.57
2023-02-16T21:49:29.299Z,13.62
2023-02-16T21:53:31.029Z,12.88
2023-02-16T21:57:33.570Z,13.25
2023-02-16T22:01:42.408Z,13.25
2023-02-16T22:05:44.381Z,13.25
2023-02-16T22:09:46.358Z,13.38
2023-02-16T22:13:53.090Z,13.15
2023-02-16T22:17:54.950Z,12.23
2023-02-16T22:21:56.993Z,12.95
2023-02-16T22:25:58.784Z,12.77
2023-02-16T22:30:00.473Z,12.55
2023-02-16T22:34:08.024Z,13.30
2023-02-16T22:38:09.667Z,12.75
2023-02-16T22:42:11.359Z,12.75
2023-02-16T22:46:16.203Z,12.80
2023-02-16T22:50:17.997Z,13.62
2023-02-16T22:54:20.450Z,13.10
2023-02-16T22:58:22.559Z,12.93
2023-02-16T23:02:24.333Z,11.90
2023-02-16T23:06:34.696Z,12.32
2023-02-16T23:10:37.902Z,12.88
2023-02-16T23:14:39.517Z,12.48
2023-02-16T23:18:42.068Z,11.55
2023-02-16T23:22:43.747Z,12.27
2023-02-16T23:26:46.057Z,12.20
2023-02-16T23:30:47.812Z,12.40
2023-02-16T23:34:49.554Z,12.25
2023-02-16T23:38:51.229Z,11.85
2023-02-16T23:42:52.892Z,11.38
2023-02-16T23:46:54.562Z,10.95
2023-02-16T23:50:56.900Z,11.18
2023-02-16T23:54:58.793Z,11.00
2023-02-16T23:59:01.141Z,11.27
